Flight Track Log - Related Links

Times and Time Zones

All times are in EDT time to prevent confusion due to time zone crossing. See the SKW6528 flight status page for this flight to view local times or setup timezone preferences in your user account.

Time Position Orientation Groundspeed Altitude Reporting Facility
EDT Latitude Longitude Course Direction KTS MPH feet Rate Location/Type
Tue 11:12:00 AM 35.4472 -119.1636 131° Southeast 260 299 7,800  Level Los Angeles Center
Tue 11:13:00 AM 35.0398 -118.5936 136° Southeast  Level FlightAware Approximate
Tue 11:13:02 AM 35.3789 -119.1203 153° Southeast 275 316 10,200  Level Los Angeles Center
Tue 11:14:00 AM 34.9443 -118.4748 129° Southeast  Level FlightAware Approximate
Tue 11:14:04 AM 35.3081 -119.0139 129° Southeast 330 380 12,200  Level Los Angeles Center
Tue 11:15:00 AM 34.8539 -118.3496 132° Southeast  Level FlightAware Approximate
Tue 11:15:06 AM 35.2394 -118.9133 130° Southeast 371 427 13,700  Level Los Angeles Center
Tue 11:16:00 AM 34.7611 -118.2361 131° Southeast  Level FlightAware Approximate
Tue 11:16:08 AM 35.1636 -118.8056 131° Southeast 412 474 15,600  Level Los Angeles Center
Tue 11:17:00 AM 34.6738 -118.1160 131° Southeast  Level FlightAware Approximate
Tue 11:17:10 AM 35.0861 -118.6992 132° Southeast 416 479 17,800  Level Los Angeles Center
Tue 11:18:12 AM 35.0100 -118.5906 131° Southeast 419 482 19,600 1,887 Climbing Los Angeles Center
Tue 11:19:14 AM 34.9303 -118.4814 132° Southeast 423 487 21,700 1,561 Climbing Los Angeles Center
Tue 11:20:15 AM 34.8525 -118.3722 131° Southeast 428 493 22,800 1,317 Climbing Los Angeles Center
Tue 11:21:17 AM 34.7722 -118.2611 131° Southeast 439 505 24,400 1,500 Climbing Los Angeles Center
Tue 11:22:19 AM 34.6750 -118.1267 131° Southeast 442 509 25,900 1,210 Climbing Los Angeles Center
Tue 11:23:21 AM 34.6406 -117.9775 106° East 479 551 26,900 1,065 Climbing Los Angeles Center
Tue 11:24:23 AM 34.6586 -117.8169 82° East 485 558 28,100 1,065 Climbing Los Angeles Center
Tue 11:25:25 AM 34.6903 -117.6600 76° East 484 557 29,100 871 Climbing Los Angeles Center
Tue 11:26:27 AM 34.7303 -117.5036 73° East 490 564 29,900 774 Climbing Los Angeles Center
Tue 11:27:29 AM 34.7792 -117.3139 73° East 496 571 30,700 726 Climbing Los Angeles Center
Tue 11:28:31 AM 34.8189 -117.1525 73° East 501 577 31,400 629 Climbing Los Angeles Center
Tue 11:29:33 AM 34.8600 -116.9911 73° East 504 580 32,000 677 Climbing Los Angeles Center
Tue 11:30:35 AM 34.9378 -116.8542 55° Northeast 493 567 32,800 488 Climbing Los Angeles Center
Tue 11:31:36 AM 35.0239 -116.7278 50° Northeast 489 563 33,000 98 Climbing Los Angeles Center
Tue 11:32:38 AM 35.1339 -116.5697 50° Northeast 502 578 33,000  Level Los Angeles Center
Tue 11:33:40 AM 35.2236 -116.4367 50° Northeast 509 586 33,000  Level Los Angeles Center
Tue 11:34:42 AM 35.3133 -116.3014 51° Northeast 512 589 33,000  Level Los Angeles Center
Tue 11:35:44 AM 35.4061 -116.1686 49° Northeast 514 592 33,000  Level Los Angeles Center
Tue 11:36:46 AM 35.4975 -116.0317 51° Northeast 518 596 33,000  Level Los Angeles Center
Tue 11:37:48 AM 35.5906 -115.8711 54° Northeast 516 594 33,000  Level Los Angeles Center
Tue 11:38:49 AM 35.6544 -115.7139 63° Northeast 512 589 33,000  Level Los Angeles Center
Tue 11:39:51 AM 35.7183 -115.5508 64° Northeast 525 604 33,000  Level Los Angeles Center
Tue 11:40:53 AM 35.7942 -115.3558 64° Northeast 530 610 33,000  Level Los Angeles Center
Tue 11:41:55 AM 35.8564 -115.1936 65° Northeast 530 610 33,000  Level Los Angeles Center
Tue 11:42:57 AM 35.9194 -115.0314 64° Northeast 530 610 33,000  Level Los Angeles Center
Tue 11:43:59 AM 35.9814 -114.8664 65° Northeast 532 612 33,000  Level Los Angeles Center
Tue 11:45:00 AM 36.0311 -114.7353 65° Northeast 531 611 33,000  Level Los Angeles Center
Tue 11:46:02 AM 36.1067 -114.5386 65° Northeast 531 611 33,000  Level Los Angeles Center
Tue 11:47:16 AM 36.1811 -114.3381 65° Northeast 535 616 33,000  Level Los Angeles Center
Tue 11:48:18 AM 36.2564 -114.1386 65° Northeast 534 615 33,000  Level Los Angeles Center
Tue 11:49:20 AM 36.3194 -113.9708 65° Northeast 537 618 33,000  Level Los Angeles Center
Tue 11:50:22 AM 36.3808 -113.8036 65° Northeast 535 616 33,000  Level Los Angeles Center
Tue 11:51:24 AM 36.4436 -113.6347 65° Northeast 538 619 33,000  Level Los Angeles Center
Tue 11:52:25 AM 36.5083 -113.4561 66° East 537 618 33,000  Level Los Angeles Center
Tue 11:53:27 AM 36.5706 -113.2869 65° Northeast 539 620 33,000  Level Los Angeles Center
Tue 11:54:29 AM 36.6319 -113.1172 66° East 540 621 33,000  Level Los Angeles Center
Tue 11:55:31 AM 36.7067 -112.9119 66° East 544 626 33,000  Level Los Angeles Center
Tue 11:56:32 AM 36.7678 -112.7408 66° East 546 628 33,000  Level Los Angeles Center
Tue 11:57:34 AM 36.8286 -112.5697 66° East 544 626 33,000  Level Los Angeles Center
Tue 11:58:36 AM 36.8889 -112.3997 66° East 541 623 33,000  Level Los Angeles Center
Tue 11:59:38 AM 36.9489 -112.2283 66° East 542 624 33,000  Level Los Angeles Center
Tue 12:00:40 PM 37.0092 -112.0575 66° East 542 624 33,000  Level Los Angeles Center
Tue 12:01:00 PM 37.0331 -111.9889 66° East 542 624 33,000  Level Denver Center
Tue 12:02:02 PM 37.0939 -111.8167 66° East 544 626 33,000  Level Denver Center
Tue 12:03:04 PM 37.1644 -111.6097 67° East 543 625 33,000  Level Denver Center
Tue 12:04:06 PM 37.2242 -111.4372 66° East 542 624 33,000  Level Denver Center
Tue 12:05:08 PM 37.2817 -111.2658 67° East 539 620 33,000  Level Denver Center
Tue 12:06:10 PM 37.3397 -111.0950 67° East 536 617 33,000  Level Denver Center
Tue 12:07:12 PM 37.3978 -110.9217 67° East 539 620 33,000  Level Denver Center
Tue 12:08:14 PM 37.4542 -110.7497 68° East 537 618 33,000  Level Denver Center
Tue 12:09:16 PM 37.5247 -110.5417 67° East 539 620 33,000  Level Denver Center
Tue 12:10:18 PM 37.5792 -110.3736 68° East 540 621 33,000  Level Denver Center
Tue 12:11:20 PM 37.6439 -110.1781 67° East 540 621 33,000  Level Denver Center
Tue 12:12:22 PM 37.6983 -110.0103 68° East 540 621 33,000  Level Denver Center
Tue 12:13:24 PM 37.7531 -109.8436 67° East 536 617 33,000  Level Denver Center
Tue 12:14:38 PM 37.8150 -109.6481 68° East 535 616 33,000  Level Denver Center
Tue 12:15:41 PM 37.8864 -109.4261 68° East 532 612 33,000  Level Denver Center
Tue 12:16:43 PM 37.9383 -109.2606 68° East 529 609 33,000  Level Denver Center
Tue 12:17:45 PM 38.0008 -109.0656 68° East 534 615 33,000  Level Denver Center
Tue 12:18:47 PM 38.0528 -108.8989 68° East 531 611 33,000  Level Denver Center
Tue 12:19:49 PM 38.1117 -108.7094 68° East 538 619 33,000  Level Denver Center
Tue 12:20:51 PM 38.1622 -108.5439 69° East 529 609 33,000  Level Denver Center
Tue 12:21:53 PM 38.2211 -108.3531 69° East 523 602 33,000  Level Denver Center
Tue 12:22:55 PM 38.2725 -108.1872 68° East 526 605 33,000  Level Denver Center
Tue 12:23:57 PM 38.3314 -107.9950 69° East 523 602 33,000  Level Denver Center
Tue 12:24:59 PM 38.3814 -107.8303 69° East 522 601 33,000  Level Denver Center
Tue 12:26:01 PM 38.4386 -107.6372 69° East 522 601 33,000  Level Denver Center
Tue 12:27:03 PM 38.5036 -107.4786 62° Northeast 530 610 33,000  Level Denver Center
Tue 12:28:05 PM 38.5839 -107.2992 60° Northeast 524 603 33,000  Level Denver Center
Tue 12:29:07 PM 38.6564 -107.1389 60° Northeast 520 598 33,000  Level Denver Center
Tue 12:30:09 PM 38.7286 -106.9769 60° Northeast 524 603 33,000 -144 Level Denver Center
Tue 12:31:12 PM 38.8006 -106.8147 60° Northeast 525 604 32,700 -624 Descending Denver Center
Tue 12:32:14 PM 38.8719 -106.6494 61° Northeast 531 611 31,700 -1,016 Descending Denver Center
Tue 12:33:16 PM 38.9561 -106.4694 59° Northeast 534 615 30,600 -1,016 Descending Denver Center
Tue 12:34:18 PM 39.0292 -106.3108 59° Northeast 539 620 29,600 -1,500 Descending Denver Center
Tue 12:35:20 PM 39.1106 -106.1281 60° Northeast 534 615 27,500 -1,887 Descending Denver Center
Tue 12:36:22 PM 39.1822 -105.9639 61° Northeast 523 602 25,700 -1,561 Descending Denver Center
Tue 12:37:23 PM 39.2406 -105.8328 60° Northeast 507 583 24,300 -1,597 Descending Denver Center
Tue 12:38:26 PM 39.3167 -105.6586 60° Northeast 478 550 22,400 -1,403 Descending Denver Center
Tue 12:39:27 PM 39.3703 -105.5375 60° Northeast 464 534 21,400 -1,500 Descending Denver Center
Tue 12:40:30 PM 39.4536 -105.3719 57° Northeast 422 486 19,300 -1,968 Descending Denver Center
Tue 12:41:32 PM 39.5214 -105.2400 56° Northeast 402 463 17,300 -1,694 Descending Denver Center
Tue 12:42:34 PM 39.5844 -105.1222 55° Northeast 395 455 15,800 -1,306 Descending Denver Center
Tue 12:43:36 PM 39.6456 -105.0047 56° Northeast 362 417 14,600 -823 Descending Denver Center
Tue 12:44:38 PM 39.6939 -104.9106 56° Northeast 309 356 14,100 -339 Descending Denver Center
Tue 12:45:40 PM 39.7500 -104.8425 43° Northeast 268 308 13,900 -629 Descending Denver Center
Tue 12:46:42 PM 39.8300 -104.8406 North 261 300 12,800 -919 Descending Denver Center
Tue 12:47:44 PM 39.9000 -104.8394 North 249 287 12,000 -387 Descending Denver Center
Tue 12:48:46 PM 39.9694 -104.8394 360° North 247 284 12,000 -339 Level Denver Center
Tue 12:49:48 PM 40.0433 -104.8411 359° North 246 283 11,300 -774 Descending Denver Center
Tue 12:50:50 PM 40.1050 -104.8600 347° North 227 261 10,400 -629 Descending Denver Center
Tue 12:51:52 PM 40.1639 -104.8697 353° North 217 250 10,000 -192 Descending Denver Center
Tue 12:52:55 PM 40.2294 -104.8686 North 219 252 10,000  Level Denver Center
Tue 12:53:57 PM 40.2881 -104.8692 360° North 212 244 10,000 -387 Level Denver Center
Tue 12:54:59 PM 40.3506 -104.8922 344° North 215 247 9,200 -484 Descending Denver Center
Tue 12:56:01 PM 40.3997 -104.8569 29° Northeast 211 243 9,000 -145 Descending Denver Center
Tue 12:57:03 PM 40.4075 -104.7867 82° East 195 224 8,900 -339 Descending Denver Center
Tue 12:58:05 PM 40.3778 -104.7392 129° Southeast 180 207 8,300 -435 Descending Denver Center
Tue 12:59:07 PM 40.3350 -104.7156 157° South 167 192 8,000 -145 Descending Denver Center
Tue 01:00:09 PM 40.2914 -104.6906 156° South 160 184 8,000  Level Denver Center
Tue 01:01:11 PM 40.2486 -104.6828 172° South 155 178 8,000  Level Denver Center
Tue 01:02:13 PM 40.2044 -104.6850 182° South 158 182 8,000  Level Denver Center
Tue 01:03:15 PM 40.1553 -104.6847 180° South 160 184 8,000  Level Denver Center
Tue 01:04:17 PM 40.1100 -104.6850 180° South 161 185 8,000 48 Level Denver Center
Tue 01:05:19 PM 40.0619 -104.6850 180° South 160 184 8,100 97 Climbing Denver Center

Login

Don't have an account? Register now (free) for customized features, flight alerts, and more!